Time;durP1;ratioP1;P1;durP2;ratioP2;P2;SDS_P1;SDS_P2;PMS_P1;PMS_P2;Temp;Humidity;BMP_temperature;BMP_pressure;BME280_temperature;BME280_humidity;BME280_pressure;Samples;Min_cycle;Max_cycle;Signal;HPM_P1;HPM_P2
2021/12/03 00:00:14;;;;;;;;;;;;;;;8.64;64.34;94305.06;5054456;28;1981;-51
2021/12/03 00:02:40;;;;;;;;;;;;;;;8.52;64.61;94300.09;5054520;28;1143;-51
2021/12/03 00:05:07;;;;;;;;;;;;;;;8.49;64.91;94299.59;5054584;28;992;-51
2021/12/03 00:07:33;;;;;;;;;;;;;;;8.37;65.16;94307.91;5054512;28;1021;-51
2021/12/03 00:09:59;;;;;;;;;;;;;;;8.34;65.63;94304.75;5054861;28;1037;-50
2021/12/03 00:12:25;;;;;;;;;;;;;;;8.29;66.02;94305.25;5053933;28;1043;-51
2021/12/03 00:14:51;;;;;;;;;;;;;;;8.30;66.20;94306.91;5054364;28;1279;-51
2021/12/03 00:17:17;;;;;;;;;;;;;;;8.24;66.28;94302.25;5054417;28;981;-51
2021/12/03 00:19:43;;;;;;;;;;;;;;;8.19;66.83;94307.25;5054124;28;1985;-51
2021/12/03 00:22:09;;;;;;;;;;;;;;;8.20;67.14;94314.25;5054039;28;1057;-51
2021/12/03 00:24:35;;;;;;;;;;;;;;;8.14;66.95;94296.28;5054251;28;1880;-51
2021/12/03 00:27:01;;;;;;;;;;;;;;;8.23;67.03;94294.44;5054156;28;1041;-51
2021/12/03 00:29:27;;;;;;;;;;;;;;;8.28;66.68;94298.25;5054126;28;1057;-51
2021/12/03 00:31:53;;;;;;;;;;;;;;;8.31;66.67;94295.28;5054086;28;1049;-51
2021/12/03 00:34:19;;;;;;;;;;;;;;;8.30;66.78;94290.94;5053841;28;1093;-51
2021/12/03 00:36:45;;;;;;;;;;;;;;;8.33;66.61;94298.59;5053847;28;1029;-51
2021/12/03 00:39:11;;;;;;;;;;;;;;;8.28;66.77;94308.91;5053863;28;1988;-51
2021/12/03 00:41:45;;;;;;;;;;;;;;;8.27;66.83;94317.06;5053167;28;1004;-51
2021/12/03 00:44:11;;;;;;;;;;;;;;;8.33;66.80;94316.41;5053651;28;1196;-51
2021/12/03 00:46:37;;;;;;;;;;;;;;;8.43;66.45;94308.28;5053813;28;1057;-51
2021/12/03 00:49:03;;;;;;;;;;;;;;;8.55;66.25;94315.72;5053485;28;1050;-51
2021/12/03 00:51:29;;;;;;;;;;;;;;;8.63;65.94;94324.72;5053689;28;1153;-51
2021/12/03 00:53:55;;;;;;;;;;;;;;;8.63;65.86;94317.53;5053760;28;1048;-51
2021/12/03 00:56:22;;;;;;;;;;;;;;;8.68;65.85;94322.38;5053701;28;1096;-51
2021/12/03 00:58:48;;;;;;;;;;;;;;;8.70;65.63;94320.38;5053323;28;1918;-51
2021/12/03 01:01:15;;;;;;;;;;;;;;;8.75;65.65;94318.88;5053222;28;1029;-51
2021/12/03 01:03:41;;;;;;;;;;;;;;;8.76;65.62;94317.03;5053256;28;1033;-51
2021/12/03 01:06:07;;;;;;;;;;;;;;;8.73;65.46;94312.88;5053482;28;1067;-51
2021/12/03 01:08:36;;;;;;;;;;;;;;;8.75;65.47;94292.22;5053336;28;1017;-51
2021/12/03 01:11:07;;;;;;;;;;;;;;;8.71;65.56;94285.56;5053370;28;1009;-51
2021/12/03 01:13:33;;;;;;;;;;;;;;;8.67;65.67;94270.94;5053265;28;1057;-51
2021/12/03 01:15:59;;;;;;;;;;;;;;;8.68;65.84;94282.41;5053675;28;1009;-51
2021/12/03 01:18:25;;;;;;;;;;;;;;;8.67;65.83;94286.06;5052962;28;1918;-51
2021/12/03 01:20:52;;;;;;;;;;;;;;;8.71;65.84;94293.56;5053367;28;1293;-51
2021/12/03 01:23:18;;;;;;;;;;;;;;;8.79;65.37;94277.53;5052720;28;1093;-51
2021/12/03 01:25:44;;;;;;;;;;;;;;;8.77;65.52;94276.88;5053229;28;954;-51
2021/12/03 01:28:12;;;;;;;;;;;;;;;8.74;65.71;94271.88;5052555;28;1350;-51
2021/12/03 01:30:38;;;;;;;;;;;;;;;8.71;65.76;94277.56;5052812;28;1097;-51
2021/12/03 01:33:07;;;;;;;;;;;;;;;8.66;65.79;94271.91;5052746;28;1048;-51
2021/12/03 01:35:34;;;;;;;;;;;;;;;8.61;66.21;94271.59;5053244;28;1202;-51
2021/12/03 01:38:01;;;;;;;;;;;;;;;8.48;66.66;94269.47;5052442;28;1997;-51
2021/12/03 01:40:28;;;;;;;;;;;;;;;8.45;66.81;94263.66;5052641;28;997;-51
2021/12/03 01:42:55;;;;;;;;;;;;;;;8.39;66.94;94273.13;5052600;28;1032;-51
2021/12/03 01:45:25;;;;;;;;;;;;;;;8.32;67.11;94264.13;5052830;28;1033;-51
2021/12/03 01:47:52;;;;;;;;;;;;;;;8.33;67.36;94260.50;5052764;28;1005;-51
2021/12/03 01:50:22;;;;;;;;;;;;;;;8.42;67.05;94270.13;5052935;28;1053;-51
2021/12/03 01:52:48;;;;;;;;;;;;;;;8.48;67.00;94253.50;5052142;28;1026;-51
2021/12/03 01:55:14;;;;;;;;;;;;;;;8.40;67.04;94259.63;5052573;28;1026;-51
2021/12/03 01:57:40;;;;;;;;;;;;;;;8.33;67.26;94239.19;5052206;28;946;-51
2021/12/03 02:00:09;;;;;;;;;;;;;;;8.29;67.75;94237.84;5052513;28;1914;-51
2021/12/03 02:02:35;;;;;;;;;;;;;;;8.26;67.64;94239.00;5052730;28;1057;-51
2021/12/03 02:05:01;;;;;;;;;;;;;;;8.36;67.37;94221.00;5052446;28;1142;-51
2021/12/03 02:07:27;;;;;;;;;;;;;;;8.46;67.18;94222.69;5052507;28;1037;-51
2021/12/03 02:09:53;;;;;;;;;;;;;;;8.46;67.01;94207.56;5052256;28;1211;-51
2021/12/03 02:12:19;;;;;;;;;;;;;;;8.54;67.04;94201.38;5051936;28;1026;-51
2021/12/03 02:14:45;;;;;;;;;;;;;;;8.54;67.04;94185.38;5052342;28;1053;-51
2021/12/03 02:17:11;;;;;;;;;;;;;;;8.53;67.11;94181.03;5052372;28;1097;-51
2021/12/03 02:19:38;;;;;;;;;;;;;;;8.57;67.13;94169.88;5052244;28;1895;-51
2021/12/03 02:22:04;;;;;;;;;;;;;;;8.63;67.09;94178.97;5052400;28;961;-51
2021/12/03 02:24:30;;;;;;;;;;;;;;;8.75;66.82;94180.28;5052008;28;1081;-51
2021/12/03 02:26:57;;;;;;;;;;;;;;;8.86;66.99;94184.41;5052468;28;985;-51
2021/12/03 02:29:23;;;;;;;;;;;;;;;8.97;66.71;94184.00;5052030;28;978;-51
2021/12/03 02:31:49;;;;;;;;;;;;;;;8.94;67.46;94199.53;5052490;28;962;-51
2021/12/03 02:34:15;;;;;;;;;;;;;;;8.95;67.30;94188.69;5051811;28;1054;-51
2021/12/03 02:36:41;;;;;;;;;;;;;;;8.96;67.67;94203.66;5052225;28;1978;-51
2021/12/03 02:39:07;;;;;;;;;;;;;;;9.08;66.95;94209.44;5051692;28;1905;-51
2021/12/03 02:41:33;;;;;;;;;;;;;;;9.11;67.25;94206.44;5052274;28;1260;-51
2021/12/03 02:43:59;;;;;;;;;;;;;;;9.16;66.71;94190.75;5051923;28;969;-51
2021/12/03 02:46:25;;;;;;;;;;;;;;;9.28;66.35;94180.50;5052395;28;1012;-51
2021/12/03 02:48:51;;;;;;;;;;;;;;;9.29;66.17;94174.13;5051826;28;1974;-51
2021/12/03 02:51:16;;;;;;;;;;;;;;;9.36;66.07;94187.59;5052329;28;1061;-51
2021/12/03 02:53:43;;;;;;;;;;;;;;;9.41;66.10;94190.59;5051767;28;1066;-51
2021/12/03 02:56:09;;;;;;;;;;;;;;;9.43;65.87;94187.72;5051947;28;1879;-52
2021/12/03 02:58:35;;;;;;;;;;;;;;;9.52;65.64;94184.84;5051766;28;1906;-51
2021/12/03 03:01:03;;;;;;;;;;;;;;;9.63;65.54;94186.22;5052007;28;1093;-51
2021/12/03 03:03:29;;;;;;;;;;;;;;;9.61;65.46;94188.25;5051944;28;1028;-51
2021/12/03 03:05:57;;;;;;;;;;;;;;;9.56;65.60;94172.78;5055853;28;1050;-51
2021/12/03 03:08:24;;;;;;;;;;;;;;;9.58;65.72;94189.44;5055159;28;938;-52
2021/12/03 03:10:50;;;;;;;;;;;;;;;9.54;65.71;94182.81;5055709;28;989;-51
2021/12/03 03:13:16;;;;;;;;;;;;;;;9.61;65.62;94182.91;5055055;28;1081;-51
2021/12/03 03:15:42;;;;;;;;;;;;;;;9.60;65.91;94183.94;5055387;28;1054;-51
2021/12/03 03:18:13;;;;;;;;;;;;;;;9.67;65.43;94186.72;5055365;28;1995;-51
2021/12/03 03:20:40;;;;;;;;;;;;;;;9.72;65.33;94181.66;5055260;28;1237;-51
2021/12/03 03:23:07;;;;;;;;;;;;;;;9.70;65.50;94189.03;5055289;28;1085;-52
2021/12/03 03:25:33;;;;;;;;;;;;;;;9.69;65.32;94185.50;5055506;28;1041;-51
2021/12/03 03:27:59;;;;;;;;;;;;;;;9.69;65.46;94184.69;5055257;28;1056;-51
2021/12/03 03:30:25;;;;;;;;;;;;;;;9.71;65.35;94182.66;5055352;28;1071;-52
2021/12/03 03:32:52;;;;;;;;;;;;;;;9.74;65.35;94190.31;5055158;28;1169;-51
2021/12/03 03:35:18;;;;;;;;;;;;;;;9.78;65.30;94183.63;5054949;28;1077;-51
2021/12/03 03:37:44;;;;;;;;;;;;;;;9.78;65.35;94178.28;5055090;28;1025;-51
2021/12/03 03:40:10;;;;;;;;;;;;;;;9.73;65.48;94160.16;5054555;28;1902;-51
2021/12/03 03:42:37;;;;;;;;;;;;;;;9.80;65.35;94167.44;5055117;28;973;-51
2021/12/03 03:45:04;;;;;;;;;;;;;;;9.85;65.07;94154.38;5054615;28;1885;-51
2021/12/03 03:47:30;;;;;;;;;;;;;;;9.91;65.02;94162.47;5054943;28;1042;-51
2021/12/03 03:49:56;;;;;;;;;;;;;;;9.99;64.67;94174.09;5054641;28;970;-51
2021/12/03 03:52:22;;;;;;;;;;;;;;;10.03;64.59;94175.38;5055051;28;998;-51
2021/12/03 03:54:48;;;;;;;;;;;;;;;10.05;64.62;94181.38;5054456;28;1017;-51
2021/12/03 03:57:14;;;;;;;;;;;;;;;10.01;64.69;94162.22;5054840;28;958;-51
2021/12/03 03:59:40;;;;;;;;;;;;;;;10.19;64.04;94163.69;5054509;28;1910;-51
2021/12/03 04:02:06;;;;;;;;;;;;;;;10.10;64.68;94166.47;5054720;28;1026;-51
2021/12/03 04:04:32;;;;;;;;;;;;;;;10.07;64.61;94182.03;5054627;28;945;-51
2021/12/03 04:06:58;;;;;;;;;;;;;;;10.07;64.70;94166.00;5054616;28;1008;-51
2021/12/03 04:09:24;;;;;;;;;;;;;;;10.16;64.36;94171.06;5054511;28;979;-51
2021/12/03 04:11:50;;;;;;;;;;;;;;;10.14;64.38;94182.97;5054532;28;1016;-51
2021/12/03 04:14:16;;;;;;;;;;;;;;;10.10;64.73;94197.69;5054286;28;1096;-51
2021/12/03 04:16:42;;;;;;;;;;;;;;;10.13;64.72;94186.63;5053896;28;997;-51
2021/12/03 04:19:08;;;;;;;;;;;;;;;10.12;64.86;94193.81;5053617;28;1902;-51
2021/12/03 04:21:34;;;;;;;;;;;;;;;10.21;64.88;94197.25;5054574;28;1072;-51
2021/12/03 04:24:00;;;;;;;;;;;;;;;10.21;64.83;94193.75;5053880;28;1093;-51
2021/12/03 04:26:26;;;;;;;;;;;;;;;10.20;64.72;94195.56;5054080;28;1061;-51
2021/12/03 04:28:52;;;;;;;;;;;;;;;10.24;64.64;94183.50;5054164;28;1038;-51
2021/12/03 04:31:18;;;;;;;;;;;;;;;10.22;64.62;94182.88;5053913;28;1014;-51
2021/12/03 04:33:44;;;;;;;;;;;;;;;10.23;64.47;94175.72;5053978;28;1048;-51
2021/12/03 04:36:10;;;;;;;;;;;;;;;10.28;64.38;94184.84;5053844;28;1061;-51
2021/12/03 04:38:36;;;;;;;;;;;;;;;10.32;64.29;94183.47;5053883;28;1961;-51
2021/12/03 04:41:03;;;;;;;;;;;;;;;10.27;64.52;94190.34;5053704;28;1045;-51
2021/12/03 04:43:29;;;;;;;;;;;;;;;10.24;65.43;94188.84;5052577;28;1888;-51
2021/12/03 04:45:56;;;;;;;;;;;;;;;10.20;65.04;94192.09;5053693;28;1029;-51
2021/12/03 04:48:22;;;;;;;;;;;;;;;10.28;64.64;94200.00;5053987;28;1001;-51
2021/12/03 04:50:48;;;;;;;;;;;;;;;10.25;64.58;94209.22;5053698;28;982;-51
2021/12/03 04:53:15;;;;;;;;;;;;;;;10.25;64.83;94211.06;5054003;28;1034;-51
2021/12/03 04:55:41;;;;;;;;;;;;;;;10.19;65.05;94201.09;5053703;28;1025;-51
2021/12/03 04:58:07;;;;;;;;;;;;;;;10.26;64.83;94213.56;5053759;28;1910;-51
2021/12/03 05:00:33;;;;;;;;;;;;;;;10.24;64.84;94214.75;5053538;28;982;-51
2021/12/03 05:03:00;;;;;;;;;;;;;;;10.23;65.09;94216.59;5053760;28;1026;-51
2021/12/03 05:05:31;;;;;;;;;;;;;;;10.28;64.68;94227.56;5051978;28;1049;-51
2021/12/03 05:07:57;;;;;;;;;;;;;;;10.33;65.09;94229.72;5053397;28;949;-52
2021/12/03 05:10:27;;;;;;;;;;;;;;;10.26;65.16;94240.28;5052660;28;1088;-51
2021/12/03 05:12:56;;;;;;;;;;;;;;;10.24;65.31;94228.94;5053747;28;1017;-51
2021/12/03 05:15:22;;;;;;;;;;;;;;;10.25;65.56;94230.59;5053149;28;1020;-51
2021/12/03 05:17:48;;;;;;;;;;;;;;;10.25;65.71;94233.28;5053182;28;1174;-51
2021/12/03 05:20:14;;;;;;;;;;;;;;;10.20;65.72;94230.31;5052939;28;1902;-51
2021/12/03 05:22:41;;;;;;;;;;;;;;;10.23;65.79;94224.59;5052915;28;1226;-51
2021/12/03 05:25:07;;;;;;;;;;;;;;;10.23;65.84;94240.63;5052626;28;1042;-51
2021/12/03 05:27:33;;;;;;;;;;;;;;;10.27;65.75;94244.59;5053005;28;1026;-52
2021/12/03 05:29:59;;;;;;;;;;;;;;;10.34;65.68;94245.56;5052950;28;989;-52
2021/12/03 05:32:25;;;;;;;;;;;;;;;10.34;65.57;94240.22;5052948;28;1030;-52
2021/12/03 05:34:51;;;;;;;;;;;;;;;10.27;66.16;94244.59;5052726;28;1101;-52
2021/12/03 05:37:17;;;;;;;;;;;;;;;10.31;65.91;94239.75;5052881;28;1200;-52
2021/12/03 05:39:43;;;;;;;;;;;;;;;10.29;66.87;94244.44;5052800;28;1915;-52
2021/12/03 05:42:09;;;;;;;;;;;;;;;10.21;66.50;94236.50;5052674;28;966;-52
2021/12/03 05:44:35;;;;;;;;;;;;;;;10.29;66.36;94257.78;5053010;28;1016;-52
2021/12/03 05:47:02;;;;;;;;;;;;;;;10.33;66.13;94267.94;5052752;28;1021;-52
2021/12/03 05:49:28;;;;;;;;;;;;;;;10.40;65.81;94267.25;5052549;28;1210;-52
2021/12/03 05:51:55;;;;;;;;;;;;;;;10.46;65.76;94256.66;5052656;28;1012;-52
2021/12/03 05:54:21;;;;;;;;;;;;;;;10.50;65.66;94257.13;5052543;28;1048;-52
2021/12/03 05:56:47;;;;;;;;;;;;;;;10.53;65.46;94267.44;5052590;28;1029;-52
2021/12/03 05:59:13;;;;;;;;;;;;;;;10.52;65.69;94282.63;5052380;28;1914;-52
2021/12/03 06:01:39;;;;;;;;;;;;;;;10.54;65.67;94280.59;5052321;28;985;-52
2021/12/03 06:04:05;;;;;;;;;;;;;;;10.61;65.19;94263.88;5052724;28;1033;-52
2021/12/03 06:06:31;;;;;;;;;;;;;;;10.72;64.79;94274.09;5051946;28;1026;-52
2021/12/03 06:09:00;;;;;;;;;;;;;;;10.74;64.70;94280.91;5052516;28;1874;-52
2021/12/03 06:11:26;;;;;;;;;;;;;;;10.89;64.26;94274.75;5051969;28;1001;-52
2021/12/03 06:13:53;;;;;;;;;;;;;;;10.97;63.93;94277.34;5052715;28;1033;-52
2021/12/03 06:16:19;;;;;;;;;;;;;;;11.09;63.68;94278.50;5052056;28;1989;-51
2021/12/03 06:18:45;;;;;;;;;;;;;;;11.22;63.27;94287.75;5052152;28;1894;-52
2021/12/03 06:21:12;;;;;;;;;;;;;;;11.31;63.21;94286.63;5052100;28;1052;-52
2021/12/03 06:23:39;;;;;;;;;;;;;;;11.60;62.49;94279.56;5052484;28;1166;-52
2021/12/03 06:26:05;;;;;;;;;;;;;;;12.22;60.00;94281.66;5052186;28;993;-51
2021/12/03 06:28:32;;;;;;;;;;;;;;;12.42;59.08;94289.03;5052457;28;985;-52
2021/12/03 06:30:58;;;;;;;;;;;;;;;13.50;56.49;94297.59;5052061;28;982;-52
2021/12/03 06:33:25;;;;;;;;;;;;;;;13.60;55.60;94305.28;5052830;28;1037;-52
2021/12/03 06:35:51;;;;;;;;;;;;;;;14.05;54.43;94303.78;5052062;28;1084;-52
2021/12/03 06:38:17;;;;;;;;;;;;;;;13.20;56.76;94299.69;5052089;28;1992;-52
2021/12/03 06:40:43;;;;;;;;;;;;;;;12.66;58.53;94298.53;5055843;28;1005;-52
2021/12/03 06:43:10;;;;;;;;;;;;;;;12.35;59.33;94307.75;5056172;28;1052;-52
2021/12/03 06:45:36;;;;;;;;;;;;;;;12.24;59.57;94303.75;5056089;28;1004;-52
2021/12/03 06:48:02;;;;;;;;;;;;;;;12.23;59.96;94304.75;5056053;28;1096;-52
2021/12/03 06:50:29;;;;;;;;;;;;;;;12.25;59.85;94310.75;5056019;28;970;-52
2021/12/03 06:53:02;;;;;;;;;;;;;;;12.39;59.60;94321.63;5056177;28;1000;-52
2021/12/03 06:55:28;;;;;;;;;;;;;;;12.59;59.01;94319.91;5054655;28;1048;-52
2021/12/03 06:57:54;;;;;;;;;;;;;;;12.72;58.77;94318.38;5056172;28;970;-52
2021/12/03 07:00:22;;;;;;;;;;;;;;;12.80;58.65;94318.22;5055685;28;1993;-52
2021/12/03 07:02:48;;;;;;;;;;;;;;;12.82;58.53;94324.22;5055872;28;970;-52
2021/12/03 07:05:14;;;;;;;;;;;;;;;12.73;59.10;94328.06;5055419;28;1005;-52
2021/12/03 07:07:41;;;;;;;;;;;;;;;12.64;58.83;94311.28;5055972;28;985;-52
2021/12/03 07:10:07;;;;;;;;;;;;;;;12.58;58.90;94304.84;5055505;28;1025;-52
2021/12/03 07:12:34;;;;;;;;;;;;;;;12.40;59.53;94305.31;5055897;28;1048;-52
2021/12/03 07:15:00;;;;;;;;;;;;;;;12.39;59.83;94311.72;5055833;28;1037;-52
2021/12/03 07:17:30;;;;;;;;;;;;;;;12.49;59.80;94309.53;5055335;28;1994;-52
2021/12/03 07:19:57;;;;;;;;;;;;;;;12.68;59.33;94294.59;5055388;28;1946;-52
2021/12/03 07:22:24;;;;;;;;;;;;;;;13.09;58.64;94296.53;5055525;28;1034;-52
2021/12/03 07:24:50;;;;;;;;;;;;;;;13.55;57.36;94297.84;5055133;28;1190;-52
2021/12/03 07:27:16;;;;;;;;;;;;;;;13.83;57.20;94281.63;5055297;28;1083;-51
2021/12/03 07:29:47;;;;;;;;;;;;;;;14.03;56.58;94280.84;5055296;28;1273;-52
2021/12/03 07:32:20;;;;;;;;;;;;;;;13.93;56.76;94294.66;5055167;28;961;-52
2021/12/03 07:34:46;;;;;;;;;;;;;;;13.93;56.70;94300.03;5055376;28;1013;-51
2021/12/03 07:37:12;;;;;;;;;;;;;;;13.95;56.42;94300.66;5054936;28;1054;-52
2021/12/03 07:39:39;;;;;;;;;;;;;;;13.87;56.48;94311.59;5055185;28;2030;-52
2021/12/03 07:42:05;;;;;;;;;;;;;;;13.86;56.59;94310.75;5054501;28;1049;-52
2021/12/03 07:44:31;;;;;;;;;;;;;;;13.62;57.02;94312.13;5055244;28;982;-52
2021/12/03 07:46:58;;;;;;;;;;;;;;;13.46;57.58;94307.91;5054664;28;1053;-52
2021/12/03 07:49:25;;;;;;;;;;;;;;;13.60;57.90;94310.66;5055206;28;974;-52
2021/12/03 07:51:51;;;;;;;;;;;;;;;13.56;58.16;94329.03;5053451;28;1096;-52
2021/12/03 07:54:18;;;;;;;;;;;;;;;13.35;57.96;94323.75;5055126;28;993;-52
2021/12/03 07:56:44;;;;;;;;;;;;;;;13.27;58.44;94317.50;5054670;28;1008;-52
2021/12/03 07:59:10;;;;;;;;;;;;;;;13.34;58.12;94325.63;5054703;28;1999;-52
2021/12/03 08:01:36;;;;;;;;;;;;;;;13.44;57.78;94309.97;5054617;28;977;-51
2021/12/03 08:04:02;;;;;;;;;;;;;;;13.47;57.38;94323.00;5054833;28;1120;-52
2021/12/03 08:06:29;;;;;;;;;;;;;;;13.47;57.20;94325.69;5054590;28;957;-52
2021/12/03 08:08:55;;;;;;;;;;;;;;;13.52;57.46;94329.63;5054583;28;1969;-52
2021/12/03 08:11:21;;;;;;;;;;;;;;;13.40;57.45;94335.56;5054060;28;1097;-51
2021/12/03 08:13:47;;;;;;;;;;;;;;;13.34;57.82;94341.72;5054402;28;1025;-51
2021/12/03 08:16:13;;;;;;;;;;;;;;;13.34;57.80;94355.16;5054322;28;985;-52
2021/12/03 08:18:38;;;;;;;;;;;;;;;13.35;58.15;94348.75;5054242;28;1895;-52
2021/12/03 08:21:04;;;;;;;;;;;;;;;13.28;58.08;94351.38;5054341;28;945;-52
2021/12/03 08:23:31;;;;;;;;;;;;;;;13.27;58.13;94355.06;5053988;28;1231;-52
2021/12/03 08:25:57;;;;;;;;;;;;;;;13.18;58.11;94345.50;5054197;28;1033;-52
2021/12/03 08:28:23;;;;;;;;;;;;;;;13.18;58.17;94358.09;5053918;28;1017;-52
2021/12/03 08:30:49;;;;;;;;;;;;;;;13.01;58.44;94355.75;5054148;28;1044;-52
2021/12/03 08:33:15;;;;;;;;;;;;;;;12.96;58.83;94374.28;5054182;28;1038;-52
2021/12/03 08:35:41;;;;;;;;;;;;;;;12.90;58.58;94369.69;5054106;28;1056;-52
2021/12/03 08:38:08;;;;;;;;;;;;;;;12.89;58.42;94373.38;5053569;28;2001;-52
2021/12/03 08:40:34;;;;;;;;;;;;;;;12.98;58.66;94368.72;5053832;28;1104;-52
2021/12/03 08:43:00;;;;;;;;;;;;;;;12.97;58.62;94362.50;5054030;28;1029;-52
2021/12/03 08:45:26;;;;;;;;;;;;;;;13.02;58.28;94359.25;5053809;28;2137;-52
2021/12/03 08:47:58;;;;;;;;;;;;;;;13.08;57.88;94353.91;5053804;28;1040;-52
2021/12/03 08:50:33;;;;;;;;;;;;;;;13.11;58.23;94350.03;5053850;28;1034;-52
2021/12/03 08:55:45;;;;;;;;;;;;;;;13.14;58.41;94356.84;5053896;28;982;-52
2021/12/03 08:58:13;;;;;;;;;;;;;;;13.13;59.11;94352.50;5053646;28;1914;-52
2021/12/03 09:00:40;;;;;;;;;;;;;;;13.13;58.49;94364.06;5053624;28;950;-52
2021/12/03 09:03:06;;;;;;;;;;;;;;;13.08;57.87;94369.19;5053128;28;1315;-52
2021/12/03 09:05:34;;;;;;;;;;;;;;;13.09;57.83;94382.41;5053823;28;1032;-52
2021/12/03 09:08:00;;;;;;;;;;;;;;;13.09;57.89;94379.75;5053238;28;962;-51
2021/12/03 09:10:26;;;;;;;;;;;;;;;13.18;57.70;94385.78;5053180;28;974;-52
2021/12/03 09:12:52;;;;;;;;;;;;;;;13.22;57.90;94386.22;5053248;28;1005;-52
2021/12/03 09:15:25;;;;;;;;;;;;;;;13.25;57.73;94378.59;5053402;28;982;-51
2021/12/03 09:23:10;;;;;;;;;;;;;;;13.20;57.57;94377.53;5052746;28;1102;-52
2021/12/03 09:25:42;;;;;;;;;;;;;;;13.13;57.23;94377.50;5053253;28;1093;-51
2021/12/03 09:28:12;;;;;;;;;;;;;;;13.08;57.21;94378.06;5052784;28;1985;-52
2021/12/03 09:30:41;;;;;;;;;;;;;;;13.13;57.33;94372.13;5053026;28;1033;-51
2021/12/03 09:33:10;;;;;;;;;;;;;;;13.17;57.08;94372.56;5052709;28;1041;-52
2021/12/03 09:35:40;;;;;;;;;;;;;;;13.22;57.32;94373.63;5053317;28;1016;-52
2021/12/03 09:38:06;;;;;;;;;;;;;;;13.25;57.04;94375.09;5052795;28;978;-52
2021/12/03 09:40:35;;;;;;;;;;;;;;;13.30;57.64;94367.31;5052689;28;1906;-52
2021/12/03 09:43:01;;;;;;;;;;;;;;;13.36;56.65;94371.06;5052555;28;981;-52
2021/12/03 09:45:28;;;;;;;;;;;;;;;13.44;56.51;94370.91;5052738;28;1085;-52
2021/12/03 09:47:55;;;;;;;;;;;;;;;13.56;56.53;94371.16;5052652;28;1052;-52
2021/12/03 09:50:21;;;;;;;;;;;;;;;13.85;55.57;94356.66;5053067;28;1045;-52
2021/12/03 09:55:15;;;;;;;;;;;;;;;14.24;54.54;94350.53;5052780;28;1033;-52
2021/12/03 10:11:44;;;;;;;;;;;;;;;14.20;53.54;94345.78;5052713;28;1041;-51
2021/12/03 10:14:02;;;;;;;;;;;;;;;14.25;53.81;94346.84;5041102;28;1465;-51
2021/12/03 10:19:19;;;;;;;;;;;;;;;14.23;53.49;94332.78;5051985;28;1997;-52
2021/12/03 10:29:40;;;;;;;;;;;;;;;14.05;53.42;94356.72;5052564;28;1026;-52
2021/12/03 10:40:31;;;;;;;;;;;;;;;14.51;51.47;94355.16;5052203;28;1971;-52
2021/12/03 10:43:58;;;;;;;;;;;;;;;14.47;51.96;94362.81;5051901;28;1030;-52
2021/12/03 10:49:00;;;;;;;;;;;;;;;14.47;51.60;94343.97;5051958;28;1044;-52
2021/12/03 10:57:34;;;;;;;;;;;;;;;14.59;51.18;94346.94;5052107;28;974;-52
2021/12/03 14:07:43;;;;;;;;;;;;;;;12.90;56.34;94337.50;5052434;28;1081;-51
2021/12/03 14:37:16;;;;;;;;;;;;;;;12.70;58.78;94343.50;5052220;28;1042;-51
2021/12/03 14:42:49;;;;;;;;;;;;;;;12.55;60.52;94358.84;5051923;28;1010;-51
2021/12/03 14:55:50;;;;;;;;;;;;;;;12.32;60.49;94350.19;5052073;28;1017;-51
2021/12/03 14:58:29;;;;;;;;;;;;;;;12.25;60.94;94352.78;5052393;28;1053;-51
2021/12/03 15:01:02;;;;;;;;;;;;;;;12.21;61.40;94351.53;5054365;28;1045;-52
2021/12/03 15:06:48;;;;;;;;;;;;;;;12.15;61.52;94352.28;5055670;28;1065;-52
2021/12/03 15:24:55;;;;;;;;;;;;;;;12.00;62.80;94355.00;5055432;28;1025;-52
2021/12/03 15:27:57;;;;;;;;;;;;;;;11.98;63.48;94367.78;5055142;28;1107;-52
2021/12/03 15:38:31;;;;;;;;;;;;;;;11.81;64.44;94372.47;5055565;28;977;-52
2021/12/03 15:52:27;;;;;;;;;;;;;;;12.00;63.37;94376.44;5054607;28;1045;-52
2021/12/03 16:08:17;;;;;;;;;;;;;;;11.81;64.95;94393.91;5054697;28;973;-52
2021/12/03 16:53:36;;;;;;;;;;;;;;;11.35;71.47;94445.81;5053727;28;1101;-52
2021/12/03 16:56:15;;;;;;;;;;;;;;;11.38;70.84;94440.06;5054010;28;1036;-52
2021/12/03 16:58:43;;;;;;;;;;;;;;;11.32;71.27;94438.13;5053526;28;1975;-51
2021/12/03 17:11:58;;;;;;;;;;;;;;;11.30;71.69;94451.69;5052958;28;1092;-52
2021/12/03 17:48:55;;;;;;;;;;;;;;;11.06;73.17;94463.47;5052664;28;1050;-52
2021/12/03 17:54:24;;;;;;;;;;;;;;;11.09;73.35;94478.31;5052807;28;1048;-52
2021/12/03 17:56:52;;;;;;;;;;;;;;;11.06;74.14;94476.00;5052697;28;1046;-52
2021/12/03 18:02:01;;;;;;;;;;;;;;;10.89;75.79;94470.81;5052601;28;986;-52
2021/12/03 18:09:47;;;;;;;;;;;;;;;10.78;76.59;94473.06;5052390;28;1042;-52
2021/12/03 18:57:19;;;;;;;;;;;;;;;10.63;77.79;94460.47;5055833;28;1017;-52
2021/12/03 18:59:57;;;;;;;;;;;;;;;10.54;78.29;94457.00;5055666;28;1906;-52
2021/12/03 19:02:24;;;;;;;;;;;;;;;10.54;77.74;94458.84;5055965;28;997;-51
2021/12/03 19:05:30;;;;;;;;;;;;;;;10.58;76.93;94464.69;5056033;28;993;-52
2021/12/03 19:10:18;;;;;;;;;;;;;;;10.69;76.75;94469.63;5055180;28;965;-52
2021/12/03 19:12:48;;;;;;;;;;;;;;;10.57;77.19;94461.19;5055889;28;978;-52
2021/12/03 19:15:15;;;;;;;;;;;;;;;10.58;77.25;94473.53;5055920;28;1005;-52
2021/12/03 19:17:43;;;;;;;;;;;;;;;10.45;77.15;94482.16;5055308;28;1221;-52
2021/12/03 19:20:13;;;;;;;;;;;;;;;10.54;76.54;94482.91;5055566;28;1918;-51
2021/12/03 19:22:39;;;;;;;;;;;;;;;10.58;75.97;94481.53;5055737;28;1040;-52
2021/12/03 19:25:06;;;;;;;;;;;;;;;10.54;75.85;94481.06;5055352;28;1034;-52
2021/12/03 19:27:32;;;;;;;;;;;;;;;10.57;75.53;94485.25;5055229;28;1113;-52
2021/12/03 19:30:00;;;;;;;;;;;;;;;10.57;75.32;94492.41;5055159;28;1113;-52
2021/12/03 19:32:27;;;;;;;;;;;;;;;10.54;75.59;94502.44;5055138;28;1056;-52
2021/12/03 19:34:54;;;;;;;;;;;;;;;10.46;75.92;94499.84;5055393;28;986;-52
2021/12/03 19:37:21;;;;;;;;;;;;;;;10.34;76.54;94490.56;5055046;28;1001;-52
2021/12/03 19:39:48;;;;;;;;;;;;;;;10.28;76.62;94475.19;5055058;28;1942;-52
2021/12/03 19:42:27;;;;;;;;;;;;;;;10.28;76.43;94494.75;5054942;28;1084;-52
2021/12/03 19:44:57;;;;;;;;;;;;;;;10.29;76.92;94501.72;5055243;28;1061;-52
2021/12/03 19:47:33;;;;;;;;;;;;;;;10.28;77.32;94505.44;5054611;28;1040;-52
2021/12/03 19:52:54;;;;;;;;;;;;;;;10.03;78.35;94506.53;5054937;28;1038;-52
2021/12/03 19:55:20;;;;;;;;;;;;;;;10.01;78.73;94504.03;5055026;28;982;-52
2021/12/03 19:57:46;;;;;;;;;;;;;;;9.99;78.73;94494.53;5054882;28;1042;-52
2021/12/03 20:00:12;;;;;;;;;;;;;;;9.95;78.82;94494.88;5054548;28;1914;-52
2021/12/03 20:02:38;;;;;;;;;;;;;;;9.94;78.83;94490.56;5054850;28;992;-52
2021/12/03 20:05:04;;;;;;;;;;;;;;;9.99;78.29;94502.56;5054766;28;1009;-52
2021/12/03 20:07:30;;;;;;;;;;;;;;;9.96;78.80;94507.25;5054521;28;1070;-52
2021/12/03 20:10:08;;;;;;;;;;;;;;;9.94;78.92;94506.59;5054914;28;986;-52
2021/12/03 20:12:34;;;;;;;;;;;;;;;10.01;78.43;94500.53;5054620;28;1069;-52
2021/12/03 20:15:05;;;;;;;;;;;;;;;9.99;78.88;94514.06;5054279;28;1042;-52
2021/12/03 20:17:37;;;;;;;;;;;;;;;9.93;79.10;94507.56;5054639;28;1056;-52
2021/12/03 20:20:06;;;;;;;;;;;;;;;9.74;79.73;94521.31;5054244;28;1910;-52
2021/12/03 20:27:53;;;;;;;;;;;;;;;9.41;81.67;94500.06;5054016;28;1344;-52
2021/12/03 20:30:33;;;;;;;;;;;;;;;9.41;81.56;94510.75;5054293;28;1036;-52
2021/12/03 20:38:36;;;;;;;;;;;;;;;9.66;80.57;94518.69;5054008;28;1093;-52
2021/12/03 20:41:06;;;;;;;;;;;;;;;9.68;80.43;94522.03;5054224;28;1057;-52
2021/12/03 20:43:44;;;;;;;;;;;;;;;9.65;80.84;94522.34;5054147;28;1113;-52
2021/12/03 20:51:45;;;;;;;;;;;;;;;9.90;79.25;94525.78;5054032;28;1041;-52
2021/12/03 20:59:42;;;;;;;;;;;;;;;9.67;80.53;94512.34;5052755;28;1975;-52
2021/12/03 21:10:27;;;;;;;;;;;;;;;9.62;80.54;94525.34;5053095;28;1062;-52
2021/12/03 21:12:56;;;;;;;;;;;;;;;9.57;80.58;94523.19;5053708;28;986;-52
2021/12/03 21:20:29;;;;;;;;;;;;;;;9.52;80.95;94537.06;5053147;28;1978;-52
2021/12/03 21:23:02;;;;;;;;;;;;;;;9.58;80.74;94530.22;5053305;28;1048;-52
2021/12/03 21:25:33;;;;;;;;;;;;;;;9.56;81.01;94525.06;5053267;28;1049;-52
2021/12/03 21:28:42;;;;;;;;;;;;;;;9.57;80.77;94526.69;5053159;28;1128;-52
2021/12/03 21:30:59;;;;;;;;;;;;;;;9.53;80.67;94524.56;5050424;28;1678;-52
2021/12/03 21:38:50;;;;;;;;;;;;;;;9.32;81.79;94538.44;5052778;28;1906;-52
2021/12/03 21:43:52;;;;;;;;;;;;;;;9.32;81.57;94547.25;5053001;28;1037;-52
2021/12/03 21:46:21;;;;;;;;;;;;;;;9.26;81.82;94544.41;5052754;28;974;-52
2021/12/03 21:48:47;;;;;;;;;;;;;;;9.25;81.80;94535.59;5052801;28;966;-52